Time;durP1;ratioP1;P1;durP2;ratioP2;P2;SDS_P1;SDS_P2;PMS_P1;PMS_P2;Temp;Humidity;BMP_temperature;BMP_pressure;BME280_temperature;BME280_humidity;BME280_pressure;Samples;Min_cycle;Max_cycle;Signal;HPM_P1;HPM_P2
2022/03/14 00:01:18;;;;;;;0.38;0.38;;;5.00;63.10;;;;;;4978453;28;20041;-76
2022/03/14 00:03:52;;;;;;;0.65;0.65;;;5.00;63.30;;;;;;4994612;28;20483;-76
2022/03/14 00:06:17;;;;;;;0.35;0.35;;;5.10;62.60;;;;;;4978274;28;20023;-76
2022/03/14 00:08:45;;;;;;;0.40;0.40;;;5.00;62.60;;;;;;5011203;28;20091;-76
2022/03/14 00:11:15;;;;;;;0.30;0.30;;;5.00;63.50;;;;;;5010885;28;20030;-76
2022/03/14 00:13:43;;;;;;;0.30;0.30;;;5.10;63.20;;;;;;4994412;28;20030;-76
2022/03/14 00:16:10;;;;;;;0.38;0.38;;;5.00;63.30;;;;;;4994356;28;20386;-76
2022/03/14 00:18:37;;;;;;;0.55;0.55;;;4.90;63.70;;;;;;4994558;28;20030;-77
2022/03/14 00:21:05;;;;;;;1.75;1.65;;;5.00;63.50;;;;;;4994504;28;20121;-77
2022/03/14 00:23:30;;;;;;;0.40;0.40;;;5.10;63.00;;;;;;4978043;28;20053;-76
2022/03/14 00:25:56;;;;;;;0.35;0.35;;;4.90;63.20;;;;;;4993925;28;20030;-76
2022/03/14 00:28:22;;;;;;;2.30;1.45;;;4.90;63.60;;;;;;5010116;28;20523;-76
2022/03/14 00:30:48;;;;;;;0.30;0.30;;;4.70;63.90;;;;;;5010294;28;20121;-76
2022/03/14 00:33:14;;;;;;;0.50;0.50;;;4.60;64.80;;;;;;4978179;28;20030;-76
2022/03/14 00:35:39;;;;;;;0.50;0.50;;;4.60;64.70;;;;;;4977481;28;20042;-76
2022/03/14 00:38:05;;;;;;;0.63;0.63;;;4.50;64.80;;;;;;4993967;28;20034;-76
2022/03/14 00:40:31;;;;;;;0.50;0.50;;;4.50;65.00;;;;;;4995145;28;20077;-76
2022/03/14 00:42:57;;;;;;;3.03;0.73;;;4.40;65.20;;;;;;4993941;28;20513;-76
2022/03/14 00:45:24;;;;;;;0.50;0.50;;;4.40;65.40;;;;;;4977646;28;20386;-76
2022/03/14 00:47:50;;;;;;;0.30;0.30;;;4.40;65.40;;;;;;4993898;28;20466;-76
2022/03/14 00:50:16;;;;;;;0.40;0.40;;;4.40;64.70;;;;;;4977510;28;20117;-76
2022/03/14 00:52:42;;;;;;;0.50;0.50;;;4.50;64.20;;;;;;5009319;28;20029;-76
2022/03/14 00:55:08;;;;;;;0.47;0.47;;;4.60;63.60;;;;;;4977461;28;20026;-76
2022/03/14 00:57:34;;;;;;;1.92;1.67;;;4.80;62.20;;;;;;5009864;28;20023;-76
2022/03/14 01:00:00;;;;;;;0.30;0.30;;;5.00;61.50;;;;;;5009662;28;20137;-76
2022/03/14 01:02:26;;;;;;;0.77;0.77;;;5.30;60.50;;;;;;4977200;28;20105;-76
2022/03/14 01:04:52;;;;;;;0.30;0.30;;;5.50;59.90;;;;;;4977192;28;20070;-76
2022/03/14 01:07:18;;;;;;;0.30;0.30;;;5.60;59.60;;;;;;4977050;28;20033;-76
2022/03/14 01:09:43;;;;;;;0.30;0.30;;;5.70;59.90;;;;;;4976826;28;20029;-76
2022/03/14 01:12:09;;;;;;;2.00;1.40;;;5.70;58.60;;;;;;4993259;28;20474;-76
2022/03/14 01:14:35;;;;;;;4.10;2.47;;;6.20;55.30;;;;;;5009619;28;20129;-76
2022/03/14 01:17:01;;;;;;;2.50;1.50;;;6.80;53.30;;;;;;4993169;28;20080;-76
2022/03/14 01:19:27;;;;;;;2.40;1.73;;;7.20;51.80;;;;;;4977904;28;20014;-76
2022/03/14 01:21:53;;;;;;;8.90;2.30;;;7.40;51.00;;;;;;4993331;28;20034;-76
2022/03/14 01:24:19;;;;;;;1.25;1.10;;;7.50;50.50;;;;;;4993310;28;20029;-76
2022/03/14 01:26:44;;;;;;;0.40;0.40;;;7.60;50.50;;;;;;4993101;28;20026;-76
2022/03/14 01:29:10;;;;;;;1.75;1.08;;;7.60;50.80;;;;;;4993305;28;20023;-76
2022/03/14 01:31:36;;;;;;;1.08;0.88;;;7.60;51.00;;;;;;4976647;28;20085;-76
2022/03/14 01:34:03;;;;;;;2.40;0.60;;;7.40;51.30;;;;;;4977129;28;20037;-76
2022/03/14 01:36:29;;;;;;;0.95;0.90;;;7.40;51.60;;;;;;5009212;28;20088;-77
2022/03/14 01:38:55;;;;;;;4.28;2.70;;;7.30;52.00;;;;;;4993125;28;20486;-76
2022/03/14 01:41:22;;;;;;;1.27;1.17;;;7.00;54.00;;;;;;4992804;28;20338;-76
2022/03/14 01:43:49;;;;;;;0.43;0.43;;;6.80;55.30;;;;;;4992919;28;20122;-76
2022/03/14 01:46:16;;;;;;;0.30;0.30;;;6.50;56.50;;;;;;4976557;28;20022;-76
2022/03/14 01:48:44;;;;;;;0.30;0.30;;;6.40;56.80;;;;;;4976601;28;20482;-76
2022/03/14 01:51:10;;;;;;;1.13;1.13;;;6.40;56.60;;;;;;5009304;28;20473;-76
2022/03/14 01:53:36;;;;;;;0.30;0.30;;;6.60;56.20;;;;;;4992807;28;20035;-76
2022/03/14 01:56:04;;;;;;;0.70;0.70;;;6.70;55.60;;;;;;5009235;28;20073;-77
2022/03/14 01:58:31;;;;;;;0.30;0.30;;;6.90;55.00;;;;;;4976499;28;20031;-76
2022/03/14 02:00:57;;;;;;;0.30;0.30;;;6.80;54.80;;;;;;4976511;28;20443;-76
2022/03/14 02:03:22;;;;;;;1.10;1.00;;;6.90;54.90;;;;;;4980131;28;20054;-76
2022/03/14 02:05:48;;;;;;;1.23;1.23;;;7.00;54.00;;;;;;4999401;28;20023;-77
2022/03/14 02:08:15;;;;;;;0.30;0.30;;;7.10;53.40;;;;;;4983040;28;20026;-76
2022/03/14 02:10:41;;;;;;;0.30;0.30;;;7.20;53.00;;;;;;4999161;28;20050;-77
2022/03/14 02:13:09;;;;;;;0.30;0.30;;;7.30;53.10;;;;;;4998914;28;20030;-76
2022/03/14 02:15:36;;;;;;;1.52;1.42;;;7.30;52.80;;;;;;4998722;28;20083;-77
2022/03/14 02:18:02;;;;;;;0.30;0.30;;;7.30;54.60;;;;;;4983025;28;20033;-77
2022/03/14 02:20:28;;;;;;;0.30;0.30;;;7.30;54.60;;;;;;5000229;28;20034;-77
2022/03/14 02:22:54;;;;;;;0.45;0.45;;;7.10;55.00;;;;;;4982717;28;20743;-76
2022/03/14 02:25:20;;;;;;;0.30;0.30;;;7.00;54.90;;;;;;4982726;28;20105;-76
2022/03/14 02:27:45;;;;;;;0.30;0.30;;;7.10;53.80;;;;;;4982739;28;20497;-77
2022/03/14 02:30:11;;;;;;;0.30;0.30;;;7.30;53.10;;;;;;4982669;28;20390;-77
2022/03/14 02:32:41;;;;;;;0.50;0.50;;;7.60;52.60;;;;;;4998927;28;20536;-77
2022/03/14 02:35:08;;;;;;;0.30;0.30;;;7.70;52.10;;;;;;4998966;28;20085;-77
2022/03/14 02:37:35;;;;;;;0.30;0.30;;;7.80;51.80;;;;;;4998981;28;20033;-77
2022/03/14 02:40:01;;;;;;;0.38;0.38;;;7.90;51.80;;;;;;4982715;28;20064;-76
2022/03/14 02:42:27;;;;;;;0.50;0.50;;;8.00;51.50;;;;;;5015101;28;20022;-76
2022/03/14 02:44:53;;;;;;;1.48;1.40;;;7.90;51.20;;;;;;4982731;28;20122;-77
2022/03/14 02:47:19;;;;;;;0.73;0.73;;;7.90;50.50;;;;;;4999920;28;20050;-76
2022/03/14 02:49:45;;;;;;;1.75;1.65;;;7.90;50.90;;;;;;4998871;28;20483;-76
2022/03/14 02:52:11;;;;;;;0.30;0.30;;;7.90;51.00;;;;;;4982305;28;20037;-76
2022/03/14 02:54:37;;;;;;;7.13;3.80;;;8.00;51.10;;;;;;4982352;28;20026;-76
2022/03/14 02:57:03;;;;;;;2.35;1.48;;;8.00;50.90;;;;;;4998563;28;20034;-77
2022/03/14 02:59:29;;;;;;;0.75;0.65;;;8.00;50.80;;;;;;4998796;28;20061;-76
2022/03/14 03:01:55;;;;;;;2.38;1.23;;;7.90;51.00;;;;;;4982729;28;20058;-76
2022/03/14 03:04:20;;;;;;;1.65;1.10;;;7.80;51.20;;;;;;4998593;28;20022;-76
2022/03/14 03:06:46;;;;;;;2.42;1.88;;;7.80;51.30;;;;;;4982067;28;20084;-76
2022/03/14 03:09:13;;;;;;;0.63;0.63;;;7.80;51.50;;;;;;4982615;28;20022;-76
2022/03/14 03:11:39;;;;;;;2.88;1.02;;;7.80;51.60;;;;;;4982670;28;20029;-76
2022/03/14 03:14:06;;;;;;;0.30;0.30;;;7.90;52.60;;;;;;4998631;28;20113;-76
2022/03/14 03:16:34;;;;;;;0.40;0.40;;;8.10;54.40;;;;;;4979277;28;20368;-77
2022/03/14 03:19:00;;;;;;;0.65;0.55;;;8.30;55.60;;;;;;4995670;28;20466;-76
2022/03/14 03:21:27;;;;;;;1.02;1.02;;;8.50;56.60;;;;;;4995581;28;20061;-76
2022/03/14 03:23:53;;;;;;;0.63;0.63;;;8.60;56.80;;;;;;4995588;28;20026;-76
2022/03/14 03:26:19;;;;;;;2.38;1.23;;;8.70;56.80;;;;;;4996517;28;20033;-77
2022/03/14 03:28:45;;;;;;;0.98;0.50;;;8.70;56.70;;;;;;4995516;28;20049;-77
2022/03/14 03:31:13;;;;;;;3.25;2.45;;;8.50;55.70;;;;;;4995583;28;20030;-77
2022/03/14 03:33:39;;;;;;;5.18;1.95;;;8.40;55.30;;;;;;5011034;28;20033;-77
2022/03/14 03:36:07;;;;;;;2.13;1.58;;;8.30;55.10;;;;;;4994773;28;20502;-77
2022/03/14 03:38:35;;;;;;;1.13;0.98;;;8.20;54.80;;;;;;4978813;28;20053;-77
2022/03/14 03:41:01;;;;;;;1.83;1.25;;;8.10;55.20;;;;;;4979106;28;20177;-77
2022/03/14 03:43:27;;;;;;;5.45;2.33;;;8.00;56.80;;;;;;4996669;28;20026;-77
2022/03/14 03:45:54;;;;;;;4.82;3.75;;;8.00;58.00;;;;;;5011140;28;20033;-77
2022/03/14 03:48:20;;;;;;;3.75;2.25;;;8.00;59.00;;;;;;5011287;28;20030;-77
2022/03/14 03:50:46;;;;;;;4.75;2.10;;;7.90;59.40;;;;;;4978876;28;20034;-77
2022/03/14 03:53:12;;;;;;;1.10;1.10;;;7.90;59.90;;;;;;4995005;28;20390;-77
2022/03/14 03:55:38;;;;;;;3.60;2.75;;;7.90;60.60;;;;;;4995016;28;20023;-77
2022/03/14 03:58:05;;;;;;;0.80;0.80;;;7.90;61.60;;;;;;4995168;28;20034;-77
2022/03/14 04:00:31;;;;;;;3.13;2.08;;;7.90;62.20;;;;;;4978499;28;20171;-77
2022/03/14 04:02:57;;;;;;;9.30;2.67;;;7.90;62.60;;;;;;4994738;28;20426;-77
2022/03/14 04:05:25;;;;;;;2.63;2.35;;;7.90;63.30;;;;;;5010687;28;20027;-76
2022/03/14 04:07:53;;;;;;;1.38;1.27;;;7.80;64.10;;;;;;4994212;28;20030;-77
2022/03/14 04:10:19;;;;;;;14.75;2.85;;;7.80;64.60;;;;;;4995588;28;20053;-77
2022/03/14 04:12:45;;;;;;;0.50;0.50;;;7.80;65.40;;;;;;4978029;28;20061;-77
2022/03/14 04:15:12;;;;;;;7.05;1.77;;;7.80;66.10;;;;;;4977782;28;20582;-77
2022/03/14 04:17:38;;;;;;;6.80;3.75;;;7.70;66.80;;;;;;4977815;28;20538;-77
2022/03/14 04:20:07;;;;;;;5.68;3.13;;;7.70;67.60;;;;;;4977907;28;20022;-77
2022/03/14 04:22:36;;;;;;;1.80;1.08;;;7.80;69.20;;;;;;4977976;28;20391;-77
2022/03/14 04:25:03;;;;;;;1.63;1.27;;;7.80;69.20;;;;;;4977902;28;20427;-77
2022/03/14 04:27:29;;;;;;;8.27;3.85;;;7.80;69.90;;;;;;5008870;28;20490;-77
2022/03/14 04:29:56;;;;;;;5.57;2.05;;;7.80;70.70;;;;;;4977856;28;20080;-77
2022/03/14 04:32:23;;;;;;;6.20;1.15;;;7.70;72.00;;;;;;4995145;28;20026;-77
2022/03/14 04:34:49;;;;;;;0.73;0.70;;;7.70;72.60;;;;;;4977807;28;20034;-76
2022/03/14 04:37:15;;;;;;;7.00;1.83;;;7.80;73.60;;;;;;5010179;28;20390;-77
2022/03/14 04:39:42;;;;;;;0.70;0.70;;;7.70;74.80;;;;;;4993717;28;20030;-77
2022/03/14 04:42:08;;;;;;;4.95;2.97;;;7.60;76.20;;;;;;4993575;28;20117;-77
2022/03/14 04:44:34;;;;;;;1.08;0.88;;;7.70;76.80;;;;;;4993531;28;20098;-77
2022/03/14 04:47:01;;;;;;;3.03;2.75;;;7.70;77.10;;;;;;5010063;28;20025;-77
2022/03/14 04:49:27;;;;;;;14.50;5.35;;;7.60;78.30;;;;;;5009916;28;20034;-77
2022/03/14 04:51:54;;;;;;;4.80;2.28;;;7.60;79.60;;;;;;4993605;28;20030;-77
2022/03/14 04:54:20;;;;;;;1.50;1.40;;;7.50;80.10;;;;;;4977544;28;20030;-77
2022/03/14 04:56:46;;;;;;;1.25;1.15;;;7.60;80.70;;;;;;4993328;28;20508;-77
2022/03/14 04:59:11;;;;;;;9.50;4.88;;;7.60;80.90;;;;;;5009852;28;20382;-77
2022/03/14 05:01:39;;;;;;;1.33;1.23;;;7.50;81.60;;;;;;4993511;28;20097;-77
2022/03/14 05:04:06;;;;;;;1.95;1.85;;;7.50;82.20;;;;;;4977325;28;20049;-77
2022/03/14 05:06:32;;;;;;;0.95;0.95;;;7.50;82.70;;;;;;4994560;28;20413;-77
2022/03/14 05:08:58;;;;;;;0.52;0.52;;;7.60;82.80;;;;;;4994879;28;20420;-77
2022/03/14 05:11:25;;;;;;;0.95;0.95;;;7.50;83.20;;;;;;4977186;28;20034;-77
2022/03/14 05:13:51;;;;;;;0.20;0.20;;;7.50;83.80;;;;;;4993273;28;20538;-77
2022/03/14 05:16:19;;;;;;;1.92;1.77;;;7.50;84.70;;;;;;4977035;28;20022;-77
2022/03/14 05:18:45;;;;;;;1.30;1.30;;;7.50;84.90;;;;;;4977108;28;20394;-77
2022/03/14 05:21:11;;;;;;;1.90;1.77;;;7.50;85.30;;;;;;5009474;28;20375;-77
2022/03/14 05:23:37;;;;;;;2.38;2.17;;;7.50;85.60;;;;;;4976759;28;20037;-77
2022/03/14 05:26:02;;;;;;;1.30;1.08;;;7.40;86.50;;;;;;4993186;28;20104;-77
2022/03/14 05:28:28;;;;;;;2.00;1.90;;;7.40;88.00;;;;;;4977201;28;20066;-77
2022/03/14 05:30:54;;;;;;;0.50;0.50;;;7.40;89.00;;;;;;5009660;28;20478;-77
2022/03/14 05:33:20;;;;;;;1.45;1.23;;;7.40;90.00;;;;;;4994266;28;20109;-77
2022/03/14 05:35:46;;;;;;;8.35;2.58;;;7.50;90.50;;;;;;5021654;23;20423;-71
2022/03/14 05:38:12;;;;;;;0.60;0.60;;;7.50;91.10;;;;;;5012457;28;20100;-71
2022/03/14 05:40:38;;;;;;;2.92;1.35;;;7.40;92.20;;;;;;5012435;28;20033;-70
2022/03/14 05:43:08;;;;;;;0.73;0.70;;;7.40;93.40;;;;;;5012510;28;20025;-71
2022/03/14 05:45:34;;;;;;;0.88;0.88;;;7.40;94.60;;;;;;5012267;28;20025;-71
2022/03/14 05:48:00;;;;;;;4.03;2.17;;;7.40;95.00;;;;;;5012470;28;20040;-71
2022/03/14 05:50:26;;;;;;;0.30;0.30;;;7.50;95.70;;;;;;5012247;28;20034;-71
2022/03/14 05:52:53;;;;;;;4.50;2.83;;;7.40;96.90;;;;;;4994724;28;20022;-71
2022/03/14 05:55:18;;;;;;;6.78;2.85;;;7.40;97.80;;;;;;5012154;28;20524;-70
2022/03/14 05:57:45;;;;;;;0.40;0.40;;;7.40;99.10;;;;;;5011018;28;20026;-70
2022/03/14 06:00:12;;;;;;;4.32;2.10;;;7.30;99.90;;;;;;5012121;28;20029;-70
2022/03/14 06:02:38;;;;;;;11.20;5.15;;;7.30;99.90;;;;;;5012214;28;20028;-71
2022/03/14 06:05:05;;;;;;;1.00;1.00;;;7.20;99.90;;;;;;5012089;28;20097;-71
2022/03/14 06:07:31;;;;;;;7.28;2.70;;;7.10;99.90;;;;;;5012051;28;20072;-70
2022/03/14 06:09:57;;;;;;;9.15;4.82;;;7.10;99.90;;;;;;5012565;28;20488;-70
2022/03/14 06:12:28;;;;;;;13.00;5.03;;;7.10;99.90;;;;;;5012141;28;20022;-71
2022/03/14 06:14:58;;;;;;;11.57;4.65;;;7.10;99.90;;;;;;5010685;28;20037;-71
2022/03/14 06:17:25;;;;;;;10.30;1.95;;;7.20;99.90;;;;;;5012034;28;20088;-71
2022/03/14 06:19:51;;;;;;;3.58;2.25;;;7.20;99.90;;;;;;5011865;28;20034;-70
2022/03/14 06:22:22;;;;;;;6.80;3.80;;;7.20;99.90;;;;;;5011762;28;20030;-70
2022/03/14 06:24:49;;;;;;;1.45;1.13;;;7.30;99.90;;;;;;5010124;28;20125;-71
2022/03/14 06:27:15;;;;;;;7.30;3.10;;;7.30;99.90;;;;;;5009798;28;20030;-70
2022/03/14 06:29:42;;;;;;;6.13;3.88;;;7.30;99.90;;;;;;5010687;28;20029;-71
2022/03/14 06:32:08;;;;;;;1.10;1.10;;;7.30;99.90;;;;;;5011694;28;20022;-71
2022/03/14 06:34:34;;;;;;;4.72;2.17;;;7.30;99.90;;;;;;5010374;28;20038;-70
2022/03/14 06:36:59;;;;;;;0.30;0.30;;;7.40;99.90;;;;;;5010321;28;20080;-70
2022/03/14 06:39:25;;;;;;;0.40;0.40;;;7.40;99.90;;;;;;5011773;28;20052;-71
2022/03/14 06:41:51;;;;;;;0.73;0.32;;;7.60;99.90;;;;;;5011488;28;20464;-71
2022/03/14 06:44:19;;;;;;;0.45;0.45;;;7.60;99.90;;;;;;5011505;28;20049;-71
2022/03/14 06:46:45;;;;;;;0.40;0.40;;;7.60;99.90;;;;;;5010407;28;20025;-71
2022/03/14 06:49:15;;;;;;;0.30;0.30;;;7.70;99.90;;;;;;5010149;28;20033;-71
2022/03/14 06:51:42;;;;;;;3.03;2.78;;;7.90;99.90;;;;;;5015483;28;20409;-71
2022/03/14 06:54:09;;;;;;;5.18;2.78;;;7.90;99.90;;;;;;5015182;28;20026;-71
2022/03/14 06:56:37;;;;;;;0.47;0.43;;;7.90;99.90;;;;;;5015271;28;20057;-71
2022/03/14 06:59:03;;;;;;;0.70;0.70;;;7.90;99.90;;;;;;5014890;28;20091;-71
2022/03/14 07:01:32;;;;;;;0.88;0.88;;;7.90;99.90;;;;;;5015012;28;20431;-71
2022/03/14 07:03:58;;;;;;;3.40;2.15;;;8.00;99.90;;;;;;5013858;28;20030;-71
2022/03/14 07:06:24;;;;;;;0.40;0.40;;;8.10;99.90;;;;;;5030342;28;20026;-71
2022/03/14 07:08:49;;;;;;;1.10;1.05;;;8.10;99.90;;;;;;5014834;28;20025;-70
2022/03/14 07:11:15;;;;;;;3.35;1.92;;;8.20;99.90;;;;;;5013426;28;20062;-70
2022/03/14 07:13:41;;;;;;;0.60;0.60;;;8.30;99.90;;;;;;5014889;28;20022;-71
2022/03/14 07:16:07;;;;;;;1.23;1.15;;;8.20;99.90;;;;;;5014826;28;20106;-73
2022/03/14 07:18:34;;;;;;;0.60;0.60;;;8.30;99.90;;;;;;5014861;28;20057;-70
2022/03/14 07:21:00;;;;;;;4.40;2.72;;;8.40;99.90;;;;;;5014885;28;20021;-71
2022/03/14 07:23:27;;;;;;;1.13;0.65;;;8.40;99.90;;;;;;5030142;28;20121;-70
2022/03/14 07:25:53;;;;;;;0.30;0.30;;;8.40;99.90;;;;;;5013277;28;20033;-70
2022/03/14 07:28:19;;;;;;;1.30;1.20;;;8.50;99.90;;;;;;5013692;28;20420;-71
2022/03/14 07:30:45;;;;;;;6.82;2.28;;;8.50;99.90;;;;;;5014626;28;20026;-71
2022/03/14 07:33:12;;;;;;;2.55;2.40;;;8.50;99.90;;;;;;5014484;28;20040;-71
2022/03/14 07:35:38;;;;;;;2.13;1.00;;;8.50;99.90;;;;;;5014324;28;20045;-71
2022/03/14 07:38:04;;;;;;;0.40;0.40;;;8.50;99.90;;;;;;5014522;28;20549;-71
2022/03/14 07:40:31;;;;;;;0.60;0.60;;;8.70;99.90;;;;;;5014339;28;20119;-71
2022/03/14 07:42:59;;;;;;;1.48;0.90;;;8.60;99.90;;;;;;5014270;28;20022;-71
2022/03/14 07:45:26;;;;;;;0.70;0.70;;;8.70;99.90;;;;;;5014117;28;20033;-71
2022/03/14 07:47:54;;;;;;;0.38;0.38;;;8.80;99.90;;;;;;5014245;28;20018;-71
2022/03/14 07:50:20;;;;;;;0.20;0.20;;;8.90;99.90;;;;;;5013066;28;20018;-71
2022/03/14 07:52:47;;;;;;;10.30;5.45;;;9.00;99.40;;;;;;5012865;28;20490;-72
2022/03/14 07:55:13;;;;;;;5.93;3.25;;;9.00;98.40;;;;;;5012643;28;20021;-72
2022/03/14 07:57:40;;;;;;;4.22;2.03;;;8.80;98.40;;;;;;5014083;28;20018;-71
2022/03/14 08:00:10;;;;;;;5.53;2.47;;;8.70;98.90;;;;;;5012383;28;20497;-72
2022/03/14 08:02:37;;;;;;;0.32;0.32;;;8.70;99.20;;;;;;5014207;28;20574;-72
2022/03/14 08:05:04;;;;;;;0.90;0.90;;;8.80;98.90;;;;;;5012667;28;20030;-72
2022/03/14 08:07:30;;;;;;;0.20;0.20;;;8.90;98.60;;;;;;5013798;28;20029;-71
2022/03/14 08:09:56;;;;;;;1.85;1.05;;;9.00;97.90;;;;;;5013681;28;20493;-71
2022/03/14 08:12:22;;;;;;;0.20;0.20;;;9.00;97.10;;;;;;5013903;28;20026;-72
2022/03/14 08:14:51;;;;;;;6.82;1.58;;;9.00;97.30;;;;;;5013668;28;20367;-72
2022/03/14 08:17:18;;;;;;;1.90;1.15;;;9.00;96.70;;;;;;5013496;28;20026;-72
2022/03/14 08:19:47;;;;;;;0.43;0.43;;;9.10;96.40;;;;;;4996017;28;20026;-72
2022/03/14 08:22:12;;;;;;;0.30;0.30;;;9.20;95.70;;;;;;5028786;28;20080;-72
2022/03/14 08:24:38;;;;;;;0.65;0.65;;;9.30;95.20;;;;;;5009375;28;20026;-72
2022/03/14 08:27:05;;;;;;;3.63;1.10;;;9.40;94.60;;;;;;5002162;28;20036;-71
2022/03/14 08:29:32;;;;;;;0.20;0.20;;;9.50;94.30;;;;;;5004959;28;20057;-72
2022/03/14 08:31:58;;;;;;;0.30;0.30;;;9.70;93.60;;;;;;5004855;28;20037;-72
2022/03/14 08:34:25;;;;;;;0.30;0.30;;;9.80;92.90;;;;;;5004834;28;20038;-72
2022/03/14 08:36:51;;;;;;;0.45;0.45;;;9.80;92.00;;;;;;5002940;28;20037;-71
2022/03/14 08:39:17;;;;;;;0.75;0.47;;;10.00;91.20;;;;;;5004052;28;20040;-71
2022/03/14 08:41:43;;;;;;;1.27;0.90;;;10.00;90.60;;;;;;5002245;28;20122;-71
2022/03/14 08:44:09;;;;;;;0.45;0.45;;;9.90;90.60;;;;;;5004633;28;20532;-72
2022/03/14 08:46:35;;;;;;;6.10;0.80;;;9.80;90.90;;;;;;5005126;28;20052;-71
2022/03/14 08:49:01;;;;;;;0.50;0.50;;;9.90;90.40;;;;;;5004767;28;20105;-70
2022/03/14 08:51:28;;;;;;;0.60;0.60;;;10.00;90.00;;;;;;5004616;28;20030;-71
2022/03/14 08:53:54;;;;;;;0.50;0.50;;;10.10;89.50;;;;;;5003329;28;20120;-71
2022/03/14 08:56:20;;;;;;;0.20;0.20;;;10.10;88.90;;;;;;5019909;28;20037;-71
2022/03/14 08:58:46;;;;;;;0.20;0.20;;;10.30;87.80;;;;;;5005241;28;20045;-72
2022/03/14 09:01:12;;;;;;;0.63;0.43;;;10.40;86.20;;;;;;5004746;28;20038;-72
2022/03/14 09:03:38;;;;;;;0.47;0.47;;;10.60;84.70;;;;;;5003990;28;20029;-72
2022/03/14 09:06:05;;;;;;;0.57;0.57;;;10.60;83.30;;;;;;5004126;28;20021;-71
2022/03/14 09:08:31;;;;;;;0.20;0.20;;;10.70;83.60;;;;;;5004753;28;20033;-70
2022/03/14 09:11:01;;;;;;;0.22;0.22;;;10.80;83.10;;;;;;5003952;28;20033;-71
2022/03/14 09:13:27;;;;;;;0.20;0.20;;;11.00;83.00;;;;;;5018744;28;20413;-70
2022/03/14 09:15:54;;;;;;;0.30;0.30;;;11.40;80.20;;;;;;5019338;28;20025;-71
2022/03/14 09:18:21;;;;;;;0.20;0.20;;;11.50;78.70;;;;;;5004997;28;20033;-71
2022/03/14 09:20:48;;;;;;;0.20;0.20;;;11.90;76.70;;;;;;5002254;28;20120;-71
2022/03/14 09:23:20;;;;;;;0.20;0.20;;;12.20;75.30;;;;;;5019553;28;20030;-72
2022/03/14 09:25:47;;;;;;;0.95;0.88;;;12.80;73.90;;;;;;5004125;28;20030;-71
2022/03/14 09:28:14;;;;;;;0.22;0.22;;;13.20;70.40;;;;;;5003481;28;20083;-71
2022/03/14 09:30:40;;;;;;;2.00;1.90;;;13.50;69.00;;;;;;5004234;28;20064;-71
2022/03/14 09:33:05;;;;;;;0.47;0.47;;;14.00;67.30;;;;;;5004947;28;20537;-72
2022/03/14 09:35:33;;;;;;;0.13;0.13;;;14.30;65.00;;;;;;5003842;28;20137;-71
2022/03/14 09:37:59;;;;;;;0.77;0.77;;;14.20;63.90;;;;;;5003523;28;20473;-72
2022/03/14 09:40:25;;;;;;;0.20;0.20;;;14.30;63.20;;;;;;5000763;28;20036;-71
2022/03/14 09:42:55;;;;;;;0.20;0.20;;;14.20;63.30;;;;;;5003212;28;20068;-72
2022/03/14 09:45:22;;;;;;;5.28;0.65;;;14.30;62.50;;;;;;5003224;28;20131;-71
2022/03/14 09:47:55;;;;;;;2.45;0.40;;;14.60;61.70;;;;;;5004661;28;20393;-71
2022/03/14 09:50:25;;;;;;;1.23;0.40;;;14.80;59.40;;;;;;5002547;28;20045;-71
2022/03/14 09:52:54;;;;;;;0.17;0.17;;;15.00;57.80;;;;;;5003675;28;20026;-71
2022/03/14 09:55:20;;;;;;;0.20;0.20;;;14.90;58.10;;;;;;5004527;28;20104;-72
2022/03/14 09:57:47;;;;;;;0.35;0.35;;;15.20;58.40;;;;;;5002768;28;20030;-72
2022/03/14 10:00:13;;;;;;;2.25;0.50;;;15.60;56.90;;;;;;5003825;28;21266;-71
2022/03/14 10:02:43;;;;;;;0.28;0.28;;;15.10;57.20;;;;;;5001769;28;20096;-72
2022/03/14 10:05:11;;;;;;;0.75;0.30;;;14.90;57.80;;;;;;5003106;28;20056;-72
2022/03/14 10:07:39;;;;;;;0.10;0.10;;;15.10;56.70;;;;;;5003615;28;20040;-71
2022/03/14 10:10:05;;;;;;;0.38;0.38;;;15.30;57.00;;;;;;5003762;28;20022;-72
2022/03/14 10:12:32;;;;;;;0.20;0.20;;;16.00;55.30;;;;;;5002699;28;20030;-72
2022/03/14 10:15:05;;;;;;;0.20;0.20;;;16.20;54.10;;;;;;5002437;28;20034;-72
2022/03/14 10:17:32;;;;;;;0.20;0.20;;;16.90;53.10;;;;;;5003376;28;20033;-72
2022/03/14 10:20:00;;;;;;;0.20;0.20;;;17.20;52.20;;;;;;5002773;28;20036;-71
2022/03/14 10:22:34;;;;;;;0.88;0.63;;;17.30;51.60;;;;;;5003822;28;20665;-71
2022/03/14 10:25:03;;;;;;;0.60;0.60;;;17.20;51.30;;;;;;5007198;28;20022;-71
2022/03/14 10:27:32;;;;;;;0.20;0.20;;;17.60;51.20;;;;;;5007390;28;20041;-71
2022/03/14 10:29:58;;;;;;;0.20;0.20;;;17.70;49.70;;;;;;5005754;28;20037;-71
2022/03/14 10:32:31;;;;;;;0.20;0.20;;;17.50;49.80;;;;;;5007664;28;20030;-72
2022/03/14 10:35:03;;;;;;;0.40;0.40;;;18.20;49.20;;;;;;5007844;28;20044;-72
2022/03/14 10:37:29;;;;;;;0.20;0.20;;;18.20;48.30;;;;;;4989701;28;20034;-72
2022/03/14 10:39:59;;;;;;;0.13;0.13;;;18.40;47.50;;;;;;5006312;28;20034;-72
2022/03/14 10:42:26;;;;;;;0.10;0.10;;;19.10;47.60;;;;;;5006905;28;20049;-72
2022/03/14 10:44:53;;;;;;;0.32;0.32;;;19.50;47.00;;;;;;5007802;28;20058;-72
2022/03/14 10:47:19;;;;;;;0.10;0.10;;;19.30;45.90;;;;;;5007682;28;20022;-73
2022/03/14 10:49:46;;;;;;;0.20;0.20;;;19.60;45.70;;;;;;5007284;28;20125;-72
2022/03/14 10:52:15;;;;;;;0.10;0.10;;;19.60;44.20;;;;;;5007265;28;20547;-72
2022/03/14 10:54:42;;;;;;;0.10;0.10;;;19.50;46.00;;;;;;5007444;28;20072;-72
2022/03/14 10:57:13;;;;;;;0.70;0.43;;;20.10;45.30;;;;;;5007562;28;20042;-72
2022/03/14 10:59:41;;;;;;;0.10;0.10;;;20.20;44.20;;;;;;5006353;28;20038;-73
2022/03/14 11:02:12;;;;;;;0.20;0.20;;;20.50;43.90;;;;;;5007177;28;20033;-72
2022/03/14 11:04:51;;;;;;;0.30;0.30;;;20.70;43.10;;;;;;5005621;28;20107;-72
2022/03/14 11:07:19;;;;;;;0.10;0.10;;;20.60;43.10;;;;;;5005091;28;20041;-72
2022/03/14 11:09:50;;;;;;;0.50;0.50;;;20.80;42.90;;;;;;5006753;28;20137;-72
2022/03/14 11:12:18;;;;;;;0.10;0.10;;;20.60;42.10;;;;;;5008355;28;20030;-72
2022/03/14 11:15:00;;;;;;;2.50;0.30;;;20.80;42.70;;;;;;5008527;28;20084;-72
2022/03/14 11:17:31;;;;;;;0.20;0.20;;;21.00;42.10;;;;;;5007024;28;20022;-72
2022/03/14 11:20:01;;;;;;;0.70;0.50;;;21.60;41.20;;;;;;5006563;28;20042;-72
2022/03/14 11:22:29;;;;;;;0.10;0.10;;;20.90;41.10;;;;;;5006384;28;20260;-71
2022/03/14 11:24:57;;;;;;;0.20;0.20;;;21.30;40.70;;;;;;5006535;28;20030;-71
2022/03/14 11:27:25;;;;;;;0.75;0.40;;;20.60;41.30;;;;;;5007484;28;20096;-71
2022/03/14 11:29:53;;;;;;;0.65;0.65;;;20.20;42.50;;;;;;5007636;28;20580;-71
2022/03/14 11:32:20;;;;;;;0.10;0.10;;;20.10;41.90;;;;;;5006854;28;20137;-71
2022/03/14 11:34:48;;;;;;;0.10;0.10;;;19.40;43.40;;;;;;5005628;28;20046;-70
2022/03/14 11:37:16;;;;;;;0.20;0.20;;;19.70;43.90;;;;;;5007020;28;20025;-71
2022/03/14 11:39:43;;;;;;;0.10;0.10;;;20.20;42.40;;;;;;5007543;28;20022;-70
2022/03/14 11:42:11;;;;;;;0.45;0.35;;;20.50;42.00;;;;;;5007109;28;20112;-74
2022/03/14 11:44:38;;;;;;;0.10;0.10;;;20.90;41.80;;;;;;5008907;28;20022;-71
2022/03/14 11:47:08;;;;;;;0.10;0.10;;;21.40;40.30;;;;;;5008202;28;20042;-70
2022/03/14 11:49:35;;;;;;;0.25;0.20;;;22.00;39.80;;;;;;5006977;28;20093;-69
2022/03/14 11:52:13;;;;;;;1.10;0.28;;;22.00;38.90;;;;;;5008556;28;20030;-70
2022/03/14 11:54:44;;;;;;;0.03;0.03;;;21.80;38.90;;;;;;5008623;28;20041;-70
2022/03/14 11:57:10;;;;;;;0.30;0.30;;;21.50;39.30;;;;;;5008097;28;20033;-70
2022/03/14 11:59:37;;;;;;;0.10;0.10;;;21.20;39.50;;;;;;5008410;28;20524;-70
2022/03/14 12:02:05;;;;;;;0.10;0.10;;;21.30;40.60;;;;;;5007277;28;20034;-70
2022/03/14 12:04:38;;;;;;;0.10;0.10;;;21.50;39.10;;;;;;5006676;28;20022;-70
2022/03/14 12:07:14;;;;;;;0.10;0.10;;;21.50;39.30;;;;;;5008154;28;20057;-70
2022/03/14 12:09:45;;;;;;;1.58;0.28;;;21.40;40.10;;;;;;5008666;28;20026;-77
2022/03/14 12:12:28;;;;;;;3.97;0.63;;;21.70;39.40;;;;;;5008152;28;20675;-71
2022/03/14 12:14:58;;;;;;;0.77;0.55;;;21.90;39.10;;;;;;5008165;28;20042;-70
2022/03/14 12:17:32;;;;;;;0.43;0.35;;;22.30;37.90;;;;;;5007637;28;20026;-71
2022/03/14 12:20:10;;;;;;;10.05;0.50;;;22.60;37.90;;;;;;5023209;28;20026;-71
2022/03/14 12:22:39;;;;;;;0.20;0.20;;;22.50;37.50;;;;;;5006047;28;20033;-71
2022/03/14 12:25:10;;;;;;;0.20;0.20;;;22.10;38.10;;;;;;5007812;28;20022;-72
2022/03/14 12:27:38;;;;;;;0.10;0.10;;;21.60;38.60;;;;;;5006542;28;20034;-72
2022/03/14 12:30:29;;;;;;;5.28;1.45;;;21.90;38.50;;;;;;5006360;28;20124;-70
2022/03/14 12:32:55;;;;;;;0.17;0.17;;;21.30;39.60;;;;;;5002785;28;20041;-73
2022/03/14 12:35:22;;;;;;;0.20;0.20;;;21.80;38.80;;;;;;5006148;28;20121;-71
2022/03/14 12:37:51;;;;;;;0.20;0.20;;;21.80;38.60;;;;;;5006523;28;20037;-71
2022/03/14 12:40:20;;;;;;;0.10;0.10;;;21.70;38.60;;;;;;5006505;28;20025;-71
2022/03/14 12:42:49;;;;;;;0.10;0.10;;;21.30;39.50;;;;;;5007071;28;20130;-69
2022/03/14 12:45:19;;;;;;;0.50;0.50;;;21.10;39.70;;;;;;5005572;28;20616;-70
2022/03/14 12:47:57;;;;;;;0.00;0.00;;;21.40;39.00;;;;;;5005853;28;20552;-70
2022/03/14 12:50:50;;;;;;;0.20;0.20;;;20.60;40.00;;;;;;5006588;28;20033;-70
2022/03/14 12:53:27;;;;;;;0.98;0.20;;;20.70;39.90;;;;;;5005955;28;20030;-72